Time;durP1;ratioP1;P1;durP2;ratioP2;P2;SDS_P1;SDS_P2;PMS_P1;PMS_P2;Temp;Humidity;BMP_temperature;BMP_pressure;BME280_temperature;BME280_humidity;BME280_pressure;Samples;Min_cycle;Max_cycle;Signal;HPM_P1;HPM_P2
2022/09/21 00:00:23;;;;;;;17.15;8.40;;;;;;;;;;5067398;28;20047;-73
2022/09/21 00:02:49;;;;;;;;;;;;;;;;;;5050010;28;20045;-74
2022/09/21 00:05:16;;;;;;;12.57;6.68;;;;;;;;;;5069212;28;19931;-74
2022/09/21 00:07:42;;;;;;;14.30;7.20;;;;;;;;;;5067387;28;20044;-74
2022/09/21 00:10:08;;;;;;;;;;;;;;;;;;5068251;28;20106;-74
2022/09/21 00:12:37;;;;;;;14.38;6.40;;;;;;;;;;5067229;28;19928;-76
2022/09/21 00:15:07;;;;;;;13.70;6.57;;;;;;;;;;5067151;28;20126;-74
2022/09/21 00:17:33;;;;;;;16.85;7.38;;;;;;;;;;5084315;28;20062;-74
2022/09/21 00:20:04;;;;;;;15.55;7.32;;;;;;;;;;5091921;28;20502;-74
2022/09/21 00:22:30;;;;;;;13.55;7.57;;;;;;;;;;5092267;28;20113;-75
2022/09/21 00:24:56;;;;;;;17.92;7.50;;;;;;;;;;5087539;28;20097;-75
2022/09/21 00:27:28;;;;;;;17.33;7.38;;;;;;;;;;5084119;28;20044;-75
2022/09/21 00:30:05;;;;;;;14.80;6.75;;;;;;;;;;5091969;28;20044;-76
2022/09/21 00:32:32;;;;;;;15.40;7.55;;;;;;;;;;5091278;28;20047;-76
2022/09/21 00:34:59;;;;;;;16.13;7.88;;;;;;;;;;5091520;28;20089;-76
2022/09/21 00:37:25;;;;;;;16.95;7.78;;;;;;;;;;5069684;28;20056;-75
2022/09/21 00:39:52;;;;;;;13.80;6.97;;;;;;;;;;5071473;28;20044;-75
2022/09/21 00:42:19;;;;;;;13.07;7.18;;;;;;;;;;5071048;28;20061;-76
2022/09/21 00:44:45;;;;;;;15.10;7.43;;;;;;;;;;5070967;28;20055;-76
2022/09/21 00:47:13;;;;;;;14.15;6.68;;;;;;;;;;5075252;28;20460;-76
2022/09/21 00:49:41;;;;;;;20.60;9.02;;;;;;;;;;5092192;28;20036;-76
2022/09/21 00:52:10;;;;;;;16.83;7.50;;;;;;;;;;5093077;28;20048;-76
2022/09/21 00:54:43;;;;;;;14.98;7.40;;;;;;;;;;5092290;28;20128;-76
2022/09/21 00:57:10;;;;;;;15.55;7.70;;;;;;;;;;5082152;28;20052;-77
2022/09/21 00:59:39;;;;;;;18.40;8.73;;;;;;;;;;5071021;28;20044;-76
2022/09/21 01:02:05;;;;;;;;;;;;;;;;;;5054741;28;20188;-76
2022/09/21 01:04:32;;;;;;;16.25;9.18;;;;;;;;;;5071595;28;19921;-75
2022/09/21 01:07:00;;;;;;;17.15;8.07;;;;;;;;;;5071826;28;20095;-76
2022/09/21 01:09:27;;;;;;;17.30;8.15;;;;;;;;;;5086240;28;20066;-72
2022/09/21 01:12:01;;;;;;;15.70;8.18;;;;;;;;;;5091660;28;20044;-78
2022/09/21 01:14:33;;;;;;;16.65;9.05;;;;;;;;;;5091249;28;20055;-71
2022/09/21 01:17:13;;;;;;;16.92;8.73;;;;;;;;;;5076466;28;20071;-75
2022/09/21 01:19:52;;;;;;;16.13;8.95;;;;;;;;;;5070041;28;20123;-75
2022/09/21 01:22:18;;;;;;;15.27;8.30;;;;;;;;;;5072872;28;20090;-75
2022/09/21 01:25:17;;;;;;;15.00;8.70;;;;;;;;;;5090900;28;20059;-75
2022/09/21 01:27:53;;;;;;;16.80;8.93;;;;;;;;;;5035039;28;20345;-76
2022/09/21 01:30:21;;;;;;;16.58;8.25;;;;;;;;;;5072791;28;20050;-76
2022/09/21 01:32:59;;;;;;;14.23;8.07;;;;;;;;;;5069519;28;20121;-76
2022/09/21 01:35:31;;;;;;;13.52;7.80;;;;;;;;;;5071036;28;20412;-77
2022/09/21 01:38:00;;;;;;;16.65;7.97;;;;;;;;;;5070934;28;20048;-76
2022/09/21 01:40:52;;;;;;;15.13;8.75;;;;;;;;;;5069951;28;20036;-76
2022/09/21 01:43:20;;;;;;;16.83;8.38;;;;;;;;;;5068626;28;20139;-75
2022/09/21 01:45:49;;;;;;;18.63;9.70;;;;;;;;;;5072042;28;20131;-77
2022/09/21 01:48:16;;;;;;;16.90;8.30;;;;;;;;;;5090871;28;20048;-76
2022/09/21 01:50:47;;;;;;;17.23;8.20;;;;;;;;;;5066880;28;20040;-76
2022/09/21 01:53:17;;;;;;;16.27;8.27;;;;;;;;;;5070550;28;20193;-77
2022/09/21 01:55:50;;;;;;;16.33;7.80;;;;;;;;;;5073564;28;20071;-76
2022/09/21 01:58:20;;;;;;;15.32;8.23;;;;;;;;;;5080823;28;20149;-76
2022/09/21 02:00:48;;;;;;;15.02;8.45;;;;;;;;;;5072872;28;20441;-76
2022/09/21 02:03:14;;;;;;;15.35;7.85;;;;;;;;;;5070555;28;20075;-76
2022/09/21 02:05:40;;;;;;;17.65;9.05;;;;;;;;;;5069406;28;20345;-75
2022/09/21 02:08:06;;;;;;;17.85;8.38;;;;;;;;;;5070193;28;20040;-76
2022/09/21 02:10:32;;;;;;;;;;;;;;;;;;5069386;28;20051;-72
2022/09/21 02:13:02;;;;;;;16.65;7.70;;;;;;;;;;5069821;28;20329;-76
2022/09/21 02:15:36;;;;;;;14.75;8.07;;;;;;;;;;5076621;28;20040;-76
2022/09/21 02:18:02;;;;;;;16.83;7.65;;;;;;;;;;5072285;28;20070;-76
2022/09/21 02:20:40;;;;;;;18.00;8.52;;;;;;;;;;5084051;28;20032;-76
2022/09/21 02:23:11;;;;;;;15.43;7.63;;;;;;;;;;5070087;28;20074;-76
2022/09/21 02:25:54;;;;;;;19.42;8.05;;;;;;;;;;5070554;28;20123;-75
2022/09/21 02:28:28;;;;;;;18.13;8.70;;;;;;;;;;5069979;28;20157;-77
2022/09/21 02:31:16;;;;;;;14.18;7.45;;;;;;;;;;5068816;28;20099;-76
2022/09/21 02:33:54;;;;;;;15.25;7.03;;;;;;;;;;5069064;28;20171;-76
2022/09/21 02:36:30;;;;;;;16.42;7.60;;;;;;;;;;5074801;28;20113;-76
2022/09/21 02:39:02;;;;;;;15.88;7.43;;;;;;;;;;5089282;28;20059;-76
2022/09/21 02:41:37;;;;;;;14.15;7.60;;;;;;;;;;5085023;28;20114;-76
2022/09/21 02:44:08;;;;;;;14.95;7.60;;;;;;;;;;5069716;28;20234;-77
2022/09/21 02:46:55;;;;;;;14.80;7.32;;;;;;;;;;5068823;28;20414;-77
2022/09/21 02:49:25;;;;;;;20.33;8.27;;;;;;;;;;5069256;28;20048;-77
2022/09/21 02:51:53;;;;;;;15.57;7.55;;;;;;;;;;5067924;28;20611;-77
2022/09/21 02:54:24;;;;;;;14.57;7.07;;;;;;;;;;5069466;28;20080;-77
2022/09/21 02:56:51;;;;;;;16.85;7.78;;;;;;;;;;5050463;28;20045;-77
2022/09/21 02:59:17;;;;;;;14.38;6.95;;;;;;;;;;5069268;28;20546;-77
2022/09/21 03:01:44;;;;;;;14.77;7.20;;;;;;;;;;5068798;28;20091;-76
2022/09/21 03:04:10;;;;;;;15.57;7.63;;;;;;;;;;5050292;28;20049;-77
2022/09/21 03:06:36;;;;;;;16.77;8.02;;;;;;;;;;5068348;28;20048;-77
2022/09/21 03:09:02;;;;;;;15.15;7.05;;;;;;;;;;5068478;28;20079;-77
2022/09/21 03:11:29;;;;;;;15.30;7.75;;;;;;;;;;5068897;28;20071;-77
2022/09/21 03:13:55;;;;;;;13.73;7.00;;;;;;;;;;5067855;28;20055;-76
2022/09/21 03:16:21;;;;;;;15.77;7.78;;;;;;;;;;5068803;28;20100;-77
2022/09/21 03:18:47;;;;;;;25.58;7.85;;;;;;;;;;5050268;28;20110;-76
2022/09/21 03:21:14;;;;;;;13.30;6.57;;;;;;;;;;5068721;28;20357;-77
2022/09/21 03:23:41;;;;;;;17.13;6.93;;;;;;;;;;5069103;28;20094;-77
2022/09/21 03:26:07;;;;;;;13.88;6.78;;;;;;;;;;5050290;28;20275;-77
2022/09/21 03:28:33;;;;;;;15.57;7.00;;;;;;;;;;5069936;28;20071;-78
2022/09/21 03:30:59;;;;;;;14.70;6.65;;;;;;;;;;5068084;28;20425;-77
2022/09/21 03:33:26;;;;;;;16.27;6.70;;;;;;;;;;5067985;28;20040;-78
2022/09/21 03:35:52;;;;;;;15.88;7.20;;;;;;;;;;5049455;28;20409;-77
2022/09/21 03:38:19;;;;;;;14.77;6.63;;;;;;;;;;5083584;28;20189;-77
2022/09/21 03:40:45;;;;;;;11.85;5.90;;;;;;;;;;5087570;28;20101;-73
2022/09/21 03:43:12;;;;;;;14.82;6.53;;;;;;;;;;5088223;28;20066;-78
2022/09/21 03:45:39;;;;;;;12.90;6.22;;;;;;;;;;5079287;28;20442;-78
2022/09/21 03:48:06;;;;;;;14.05;6.88;;;;;;;;;;5066813;28;20045;-78
2022/09/21 03:50:32;;;;;;;13.40;6.68;;;;;;;;;;5049832;28;20075;-78
2022/09/21 03:52:58;;;;;;;14.95;6.47;;;;;;;;;;5066726;28;20117;-78
2022/09/21 03:55:24;;;;;;;12.75;6.30;;;;;;;;;;5072558;28;20074;-78
2022/09/21 03:57:50;;;;;;;14.98;6.70;;;;;;;;;;5083752;28;20044;-77
2022/09/21 04:00:16;;;;;;;16.45;6.40;;;;;;;;;;5088110;28;20363;-77
2022/09/21 04:02:43;;;;;;;14.90;6.32;;;;;;;;;;5070699;28;20055;-77
2022/09/21 04:05:09;;;;;;;14.05;6.70;;;;;;;;;;5085895;28;20188;-78
2022/09/21 04:07:36;;;;;;;12.18;6.20;;;;;;;;;;5067799;28;20441;-78
2022/09/21 04:10:02;;;;;;;;;;;;;;;;;;5067104;28;20541;-77
2022/09/21 04:12:28;;;;;;;13.43;6.15;;;;;;;;;;5068188;28;19924;-79
2022/09/21 04:14:54;;;;;;;13.38;6.18;;;;;;;;;;5067236;28;20177;-77
2022/09/21 04:17:20;;;;;;;12.98;6.45;;;;;;;;;;5068993;28;20052;-78
2022/09/21 04:19:47;;;;;;;12.98;6.20;;;;;;;;;;5067727;28;20041;-78
2022/09/21 04:22:13;;;;;;;12.18;6.20;;;;;;;;;;5067107;28;20480;-78
2022/09/21 04:24:39;;;;;;;13.77;6.25;;;;;;;;;;5067689;28;20437;-78
2022/09/21 04:27:09;;;;;;;14.05;6.13;;;;;;;;;;5066695;28;20044;-78
2022/09/21 04:29:35;;;;;;;13.55;6.32;;;;;;;;;;5067161;28;20084;-77
2022/09/21 04:32:01;;;;;;;;;;;;;;;;;;5067041;28;20089;-78
2022/09/21 04:34:28;;;;;;;14.90;6.25;;;;;;;;;;5067679;28;20289;-78
2022/09/21 04:36:54;;;;;;;16.40;6.93;;;;;;;;;;5067304;28;20089;-77
2022/09/21 04:39:20;;;;;;;15.65;6.25;;;;;;;;;;5067157;28;20056;-78
2022/09/21 04:41:46;;;;;;;13.75;6.03;;;;;;;;;;5067338;28;20044;-78
2022/09/21 04:44:12;;;;;;;;;;;;;;;;;;5067697;28;20124;-78
2022/09/21 04:46:38;;;;;;;15.38;6.47;;;;;;;;;;5067815;28;19982;-78
2022/09/21 04:49:04;;;;;;;12.38;5.75;;;;;;;;;;5067218;28;20052;-78
2022/09/21 04:51:30;;;;;;;13.00;6.05;;;;;;;;;;5055963;28;20480;-79
2022/09/21 04:53:56;;;;;;;15.75;6.55;;;;;;;;;;5087273;28;20408;-77
2022/09/21 04:56:22;;;;;;;16.00;6.07;;;;;;;;;;5088011;28;20124;-79
2022/09/21 04:58:48;;;;;;;13.95;5.70;;;;;;;;;;5080567;28;20045;-78
2022/09/21 05:01:14;;;;;;;15.65;7.00;;;;;;;;;;5067297;28;20048;-74
2022/09/21 05:03:40;;;;;;;12.73;5.90;;;;;;;;;;5067719;28;20138;-78
2022/09/21 05:06:07;;;;;;;12.43;6.10;;;;;;;;;;5070608;28;20044;-78
2022/09/21 05:11:18;;;;;;;15.25;6.00;;;;;;;;;;5070052;28;20049;-78
2022/09/21 05:13:45;;;;;;;14.13;6.18;;;;;;;;;;5087591;28;20130;-79
2022/09/21 05:16:11;;;;;;;13.07;5.70;;;;;;;;;;5085573;28;20041;-79
2022/09/21 05:18:37;;;;;;;16.13;6.30;;;;;;;;;;5052588;28;20052;-78
2022/09/21 05:21:05;;;;;;;16.05;6.43;;;;;;;;;;5065873;28;20055;-78
2022/09/21 05:23:31;;;;;;;14.43;6.38;;;;;;;;;;5076108;28;20055;-78
2022/09/21 05:25:58;;;;;;;16.58;6.38;;;;;;;;;;5051283;28;20054;-71
2022/09/21 05:28:24;;;;;;;13.32;6.55;;;;;;;;;;5067336;28;20044;-79
2022/09/21 05:30:54;;;;;;;13.57;5.97;;;;;;;;;;5069388;28;20070;-79
2022/09/21 05:33:20;;;;;;;13.63;6.13;;;;;;;;;;5068769;28;20071;-78
2022/09/21 05:35:46;;;;;;;;;;;;;;;;;;5075417;28;20136;-78
2022/09/21 05:38:12;;;;;;;12.63;5.53;;;;;;;;;;5078197;28;19994;-77
2022/09/21 05:40:38;;;;;;;15.02;6.10;;;;;;;;;;5072434;28;20043;-77
2022/09/21 05:43:04;;;;;;;13.75;6.30;;;;;;;;;;5068419;28;20125;-77
2022/09/21 05:45:31;;;;;;;15.50;7.03;;;;;;;;;;5069041;28;20124;-78
2022/09/21 05:48:11;;;;;;;15.18;7.70;;;;;;;;;;5078657;28;20067;-78
2022/09/21 05:50:46;;;;;;;16.15;7.20;;;;;;;;;;5077471;28;20067;-78
2022/09/21 05:53:20;;;;;;;22.77;7.68;;;;;;;;;;5088464;28;20044;-78
2022/09/21 05:55:46;;;;;;;17.75;7.05;;;;;;;;;;5073234;28;20041;-78
2022/09/21 05:58:31;;;;;;;24.60;8.70;;;;;;;;;;5075913;28;20063;-78
2022/09/21 06:01:09;;;;;;;24.30;7.82;;;;;;;;;;5084729;28;20105;-77
2022/09/21 06:03:36;;;;;;;21.38;8.20;;;;;;;;;;5087708;28;20500;-78
2022/09/21 06:06:02;;;;;;;21.67;9.43;;;;;;;;;;5086326;28;20433;-71
2022/09/21 06:08:28;;;;;;;23.67;9.25;;;;;;;;;;5083449;28;20055;-77
2022/09/21 06:10:54;;;;;;;28.23;8.55;;;;;;;;;;5085719;28;20124;-78
2022/09/21 06:13:21;;;;;;;16.90;7.95;;;;;;;;;;5086711;28;20040;-78
2022/09/21 06:15:47;;;;;;;20.55;9.05;;;;;;;;;;5087034;28;20365;-77
2022/09/21 06:18:13;;;;;;;21.33;8.32;;;;;;;;;;5086916;28;20078;-78
2022/09/21 06:20:39;;;;;;;20.17;8.65;;;;;;;;;;5087575;28;20044;-78
2022/09/21 06:23:06;;;;;;;19.23;8.63;;;;;;;;;;5065856;28;20103;-71
2022/09/21 06:25:32;;;;;;;17.42;8.52;;;;;;;;;;5087684;28;20091;-77
2022/09/21 06:28:11;;;;;;;24.83;7.80;;;;;;;;;;5087412;28;20142;-81
2022/09/21 06:30:39;;;;;;;18.48;8.23;;;;;;;;;;5076524;28;20376;-80
2022/09/21 06:33:08;;;;;;;17.33;8.05;;;;;;;;;;5074107;28;20048;-78
2022/09/21 06:35:35;;;;;;;19.33;8.32;;;;;;;;;;5077071;28;20055;-79
2022/09/21 06:38:02;;;;;;;17.83;8.43;;;;;;;;;;5108988;28;20150;-79
2022/09/21 06:40:28;;;;;;;20.00;8.48;;;;;;;;;;5072969;28;20832;-78
2022/09/21 06:42:56;;;;;;;19.65;8.48;;;;;;;;;;5084736;28;20052;-79
2022/09/21 06:45:22;;;;;;;17.83;8.75;;;;;;;;;;5086424;28;20471;-79
2022/09/21 06:47:48;;;;;;;19.77;9.75;;;;;;;;;;5065579;28;20062;-78
2022/09/21 06:50:14;;;;;;;25.00;10.88;;;;;;;;;;5084240;28;20455;-79
2022/09/21 06:52:40;;;;;;;21.08;8.60;;;;;;;;;;5069410;28;20079;-79
2022/09/21 06:55:07;;;;;;;25.60;9.98;;;;;;;;;;5065927;28;20051;-79
2022/09/21 06:57:33;;;;;;;;;;;;;;;;;;5074483;28;20100;-79
2022/09/21 06:59:59;;;;;;;22.27;9.05;;;;;;;;;;5084457;28;20010;-80
2022/09/21 07:02:25;;;;;;;22.52;8.95;;;;;;;;;;5077042;28;20128;-79
2022/09/21 07:04:52;;;;;;;22.27;9.23;;;;;;;;;;5063170;28;20044;-78
2022/09/21 07:07:18;;;;;;;17.70;8.25;;;;;;;;;;5068149;28;20148;-76
2022/09/21 07:09:44;;;;;;;19.27;8.13;;;;;;;;;;5069733;28;20059;-78
2022/09/21 07:12:10;;;;;;;;;;;;;;;;;;5062552;28;20049;-71
2022/09/21 07:14:36;;;;;;;21.05;8.88;;;;;;;;;;5085066;28;20316;-79
2022/09/21 07:17:02;;;;;;;15.73;8.63;;;;;;;;;;5072779;28;20444;-79
2022/09/21 07:19:28;;;;;;;19.15;8.27;;;;;;;;;;5065449;28;20319;-79
2022/09/21 07:21:54;;;;;;;20.73;9.18;;;;;;;;;;5067794;28;20053;-78
2022/09/21 07:24:20;;;;;;;17.15;8.65;;;;;;;;;;5067438;28;20063;-78
2022/09/21 07:26:48;;;;;;;20.67;9.30;;;;;;;;;;5070536;28;20052;-77
2022/09/21 07:29:14;;;;;;;26.85;8.82;;;;;;;;;;5067050;28;20121;-71
2022/09/21 07:31:40;;;;;;;;;;;;;;;;;;5051214;28;20487;-76
2022/09/21 07:34:06;;;;;;;19.65;9.00;;;;;;;;;;5067703;28;19952;-76
2022/09/21 07:36:32;;;;;;;23.33;8.48;;;;;;;;;;5070369;28;20968;-77
2022/09/21 07:38:58;;;;;;;21.83;8.18;;;;;;;;;;5049392;28;20052;-78
2022/09/21 07:41:24;;;;;;;18.42;8.68;;;;;;;;;;5067145;28;20132;-76
2022/09/21 07:43:52;;;;;;;18.60;7.93;;;;;;;;;;5068075;28;20113;-76
2022/09/21 07:46:19;;;;;;;20.45;8.02;;;;;;;;;;5078909;28;20047;-75
2022/09/21 07:48:46;;;;;;;20.52;8.07;;;;;;;;;;5087822;28;20044;-77
2022/09/21 07:51:12;;;;;;;;;;;;;;;;;;5088650;28;20040;-77
2022/09/21 07:53:39;;;;;;;17.35;8.00;;;;;;;;;;5087830;28;20224;-77
2022/09/21 07:56:07;;;;;;;19.55;8.63;;;;;;;;;;5074918;28;20064;-77
2022/09/21 08:01:17;;;;;;;19.40;8.30;;;;;;;;;;5081020;28;20099;-77
2022/09/21 08:03:43;;;;;;;20.23;7.93;;;;;;;;;;5071064;28;20055;-77
2022/09/21 08:06:09;;;;;;;26.25;8.73;;;;;;;;;;5075453;28;20056;-77
2022/09/21 08:08:36;;;;;;;19.50;8.30;;;;;;;;;;5075790;28;20133;-77
2022/09/21 08:11:03;;;;;;;16.00;7.47;;;;;;;;;;5086306;28;20070;-76
2022/09/21 08:13:29;;;;;;;20.10;7.30;;;;;;;;;;5094408;28;20051;-77
2022/09/21 08:15:59;;;;;;;20.30;7.28;;;;;;;;;;5074448;28;20078;-77
2022/09/21 08:18:26;;;;;;;19.77;6.82;;;;;;;;;;5067034;28;20088;-77
2022/09/21 08:20:52;;;;;;;;;;;;;;;;;;5072007;28;20101;-77
2022/09/21 08:23:19;;;;;;;17.08;6.32;;;;;;;;;;5087832;28;19920;-76
2022/09/21 08:25:45;;;;;;;12.05;5.28;;;;;;;;;;5085273;28;20052;-76
2022/09/21 08:28:11;;;;;;;16.73;5.25;;;;;;;;;;5068436;28;20116;-76
2022/09/21 08:30:37;;;;;;;16.67;6.05;;;;;;;;;;5067182;28;20048;-76
2022/09/21 08:33:03;;;;;;;15.60;5.72;;;;;;;;;;5067858;28;20132;-76
2022/09/21 08:35:33;;;;;;;15.65;5.05;;;;;;;;;;5066747;28;20063;-76
2022/09/21 08:37:59;;;;;;;17.48;5.70;;;;;;;;;;5073781;28;20048;-76
2022/09/21 08:40:30;;;;;;;18.48;5.88;;;;;;;;;;5083842;28;20036;-77
2022/09/21 08:43:17;;;;;;;18.05;6.10;;;;;;;;;;5083981;28;20048;-75
2022/09/21 08:45:44;;;;;;;17.63;4.65;;;;;;;;;;5088844;28;20084;-76
2022/09/21 08:48:31;;;;;;;15.77;4.68;;;;;;;;;;5074116;28;20121;-76
2022/09/21 08:51:00;;;;;;;16.88;5.10;;;;;;;;;;5070918;28;20433;-76
2022/09/21 08:53:37;;;;;;;17.70;3.40;;;;;;;;;;5069921;28;20044;-75
2022/09/21 08:56:04;;;;;;;16.38;4.15;;;;;;;;;;5088547;28;20048;-76
2022/09/21 08:58:30;;;;;;;;;;;;;;;;;;5098142;28;20062;-75
2022/09/21 09:01:14;;;;;;;10.75;3.95;;;;;;;;;;5111405;28;19939;-76
2022/09/21 09:03:58;;;;;;;14.27;3.40;;;;;;;;;;5110704;28;20048;-75
2022/09/21 09:06:34;;;;;;;16.15;3.42;;;;;;;;;;5072179;28;20130;-71
2022/09/21 09:09:17;;;;;;;12.50;3.33;;;;;;;;;;5071564;28;20127;-76
2022/09/21 09:11:47;;;;;;;11.27;2.97;;;;;;;;;;5084724;28;20047;-76
2022/09/21 09:14:27;;;;;;;12.13;3.20;;;;;;;;;;5091105;28;20122;-76
2022/09/21 09:16:59;;;;;;;13.07;3.50;;;;;;;;;;5073466;28;20380;-76
2022/09/21 09:19:28;;;;;;;13.02;3.28;;;;;;;;;;5090402;28;20124;-76
2022/09/21 09:21:55;;;;;;;13.93;3.22;;;;;;;;;;5086350;28;20152;-76
2022/09/21 09:24:32;;;;;;;13.68;3.47;;;;;;;;;;5090855;28;20113;-76
2022/09/21 09:27:03;;;;;;;16.27;2.92;;;;;;;;;;5078936;28;20056;-76
2022/09/21 09:29:42;;;;;;;11.20;3.30;;;;;;;;;;5085776;28;20175;-74
2022/09/21 09:32:12;;;;;;;12.23;3.08;;;;;;;;;;5078459;28;20067;-76
2022/09/21 09:34:42;;;;;;;11.45;3.20;;;;;;;;;;5089563;28;20056;-75
2022/09/21 09:37:15;;;;;;;11.20;2.90;;;;;;;;;;5077896;28;20063;-72
2022/09/21 09:39:44;;;;;;;13.68;2.72;;;;;;;;;;5068466;28;20080;-75
2022/09/21 09:42:10;;;;;;;12.93;3.38;;;;;;;;;;5069955;28;20126;-77
2022/09/21 09:44:45;;;;;;;15.90;2.53;;;;;;;;;;5069458;28;20048;-76
2022/09/21 09:47:26;;;;;;;10.90;2.65;;;;;;;;;;5072713;28;20507;-76
2022/09/21 09:50:05;;;;;;;10.35;2.60;;;;;;;;;;5083176;28;20404;-75
2022/09/21 09:52:32;;;;;;;10.75;2.80;;;;;;;;;;5049244;28;20052;-71
2022/09/21 09:54:59;;;;;;;9.93;2.55;;;;;;;;;;5078704;28;20043;-74
2022/09/21 09:57:32;;;;;;;12.00;2.75;;;;;;;;;;5067571;28;20436;-75
2022/09/21 10:00:02;;;;;;;11.02;2.35;;;;;;;;;;5088795;28;20040;-72
2022/09/21 10:02:28;;;;;;;9.52;2.30;;;;;;;;;;5071669;28;20040;-72
2022/09/21 10:04:54;;;;;;;14.63;2.53;;;;;;;;;;5077697;28;20130;-72
2022/09/21 10:07:32;;;;;;;8.05;2.10;;;;;;;;;;5077574;28;20150;-74
2022/09/21 10:09:58;;;;;;;10.05;2.38;;;;;;;;;;5068439;28;20048;-71
2022/09/21 10:12:26;;;;;;;13.10;2.40;;;;;;;;;;5068911;28;20060;-73
2022/09/21 10:14:53;;;;;;;13.65;2.30;;;;;;;;;;5067778;28;20079;-72
2022/09/21 10:17:19;;;;;;;10.18;2.20;;;;;;;;;;5067587;28;20094;-69
2022/09/21 10:19:45;;;;;;;;;;;;;;;;;;5067739;28;20054;-72
2022/09/21 10:22:16;;;;;;;12.60;2.30;;;;;;;;;;5079027;28;20002;-73
2022/09/21 10:24:47;;;;;;;10.57;2.20;;;;;;;;;;5086920;28;20048;-73
2022/09/21 10:27:15;;;;;;;10.90;2.35;;;;;;;;;;5079083;28;20514;-72
2022/09/21 10:29:45;;;;;;;12.88;2.30;;;;;;;;;;5054944;28;20208;-72
2022/09/21 10:32:11;;;;;;;13.98;2.58;;;;;;;;;;5067547;28;20048;-73
2022/09/21 10:34:38;;;;;;;8.30;2.15;;;;;;;;;;5075031;28;20472;-69
2022/09/21 10:37:23;;;;;;;8.85;2.10;;;;;;;;;;5080934;28;20112;-72
2022/09/21 10:39:49;;;;;;;8.75;2.05;;;;;;;;;;5064087;28;20134;-72
2022/09/21 10:42:17;;;;;;;8.82;2.17;;;;;;;;;;5044999;28;20060;-72
2022/09/21 10:44:44;;;;;;;10.50;2.00;;;;;;;;;;5066380;28;20074;-72
2022/09/21 10:47:13;;;;;;;12.48;2.92;;;;;;;;;;5064097;28;20098;-71
2022/09/21 10:49:43;;;;;;;10.25;2.40;;;;;;;;;;5067288;28;20114;-69
2022/09/21 10:52:09;;;;;;;10.50;2.40;;;;;;;;;;5079919;28;20040;-72
2022/09/21 10:54:35;;;;;;;10.50;2.17;;;;;;;;;;5069971;28;20054;-74
2022/09/21 10:57:06;;;;;;;12.45;2.38;;;;;;;;;;5067826;28;20052;-72
2022/09/21 10:59:33;;;;;;;9.40;2.15;;;;;;;;;;5068091;28;20141;-74
2022/09/21 11:02:00;;;;;;;10.50;2.10;;;;;;;;;;5071784;28;20075;-74
2022/09/21 11:04:29;;;;;;;10.95;2.05;;;;;;;;;;5081065;28;20141;-73
2022/09/21 11:07:00;;;;;;;9.82;2.30;;;;;;;;;;5072650;28;20101;-74
2022/09/21 11:09:31;;;;;;;12.13;2.92;;;;;;;;;;5067209;28;20100;-73
2022/09/21 11:12:05;;;;;;;6.47;1.90;;;;;;;;;;5064170;28;20105;-73
2022/09/21 11:14:43;;;;;;;10.63;2.25;;;;;;;;;;5080204;28;20114;-74
2022/09/21 11:17:35;;;;;;;11.38;2.40;;;;;;;;;;5071158;28;20151;-73
2022/09/21 11:20:20;;;;;;;8.85;2.00;;;;;;;;;;5036472;28;20122;-74
2022/09/21 11:22:55;;;;;;;6.10;1.67;;;;;;;;;;5066805;28;20128;-73
2022/09/21 11:25:40;;;;;;;9.38;2.35;;;;;;;;;;5069244;28;20059;-73
2022/09/21 11:28:14;;;;;;;9.10;2.22;;;;;;;;;;5073939;28;20055;-74
2022/09/21 11:30:47;;;;;;;13.48;2.40;;;;;;;;;;5067248;28;20040;-71
2022/09/21 11:33:17;;;;;;;9.57;1.88;;;;;;;;;;5067696;28;20040;-74
2022/09/21 11:35:46;;;;;;;10.40;2.22;;;;;;;;;;5067926;28;20086;-70
2022/09/21 11:38:15;;;;;;;9.85;1.90;;;;;;;;;;5069764;28;20483;-73
2022/09/21 11:40:41;;;;;;;15.07;2.53;;;;;;;;;;5067221;28;20037;-73
2022/09/21 11:43:21;;;;;;;7.10;1.60;;;;;;;;;;5066187;28;20099;-74
2022/09/21 11:46:05;;;;;;;9.38;2.08;;;;;;;;;;5067756;28;20124;-72
2022/09/21 11:48:31;;;;;;;8.52;1.85;;;;;;;;;;5083923;28;20115;-74
2022/09/21 11:51:10;;;;;;;10.10;2.00;;;;;;;;;;5071314;28;20037;-73
2022/09/21 11:53:56;;;;;;;10.88;2.00;;;;;;;;;;5067413;28;20399;-75
2022/09/21 11:56:42;;;;;;;7.72;2.00;;;;;;;;;;5067316;28;20067;-75
2022/09/21 11:59:20;;;;;;;7.25;1.85;;;;;;;;;;5066970;28;20464;-74
2022/09/21 12:02:17;;;;;;;10.18;2.20;;;;;;;;;;5067636;28;20132;-76
2022/09/21 12:04:48;;;;;;;8.88;1.92;;;;;;;;;;5069168;28;20496;-76
2022/09/21 12:07:17;;;;;;;10.13;2.15;;;;;;;;;;5071829;28;21797;-72
2022/09/21 12:10:02;;;;;;;13.52;2.13;;;;;;;;;;5062279;28;20044;-76
2022/09/21 12:12:34;;;;;;;8.85;2.10;;;;;;;;;;5067278;28;20056;-76
2022/09/21 12:15:04;;;;;;;9.80;2.10;;;;;;;;;;5067739;28;20139;-77
2022/09/21 12:17:48;;;;;;;9.07;2.10;;;;;;;;;;5068864;28;20451;-74
2022/09/21 12:20:14;;;;;;;10.55;2.40;;;;;;;;;;5077627;28;20044;-76
2022/09/21 12:22:43;;;;;;;9.55;2.50;;;;;;;;;;5071296;28;20048;-76
2022/09/21 12:25:20;;;;;;;10.27;1.98;;;;;;;;;;5071019;28;20593;-72
2022/09/21 12:27:51;;;;;;;9.32;1.98;;;;;;;;;;5070805;28;20059;-73
2022/09/21 12:30:19;;;;;;;10.63;2.30;;;;;;;;;;5091871;28;20397;-74
2022/09/21 12:32:50;;;;;;;7.97;2.10;;;;;;;;;;5073056;28;20175;-75
2022/09/21 12:35:20;;;;;;;11.07;2.50;;;;;;;;;;5084423;28;20048;-74
2022/09/21 12:37:49;;;;;;;10.70;2.10;;;;;;;;;;5074918;28;20048;-76
2022/09/21 12:40:23;;;;;;;10.38;2.25;;;;;;;;;;5069358;28;20044;-76
2022/09/21 12:43:02;;;;;;;11.00;3.10;;;;;;;;;;5070807;28;20110;-76
2022/09/21 12:45:34;;;;;;;12.52;2.80;;;;;;;;;;5076223;28;20048;-75
2022/09/21 12:48:26;;;;;;;8.82;2.38;;;;;;;;;;5071640;28;20041;-74
2022/09/21 12:51:04;;;;;;;11.77;3.22;;;;;;;;;;5079806;28;20135;-74
2022/09/21 12:53:33;;;;;;;10.80;2.75;;;;;;;;;;5086015;28;20055;-73
2022/09/21 12:56:11;;;;;;;10.73;3.83;;;;;;;;;;5082319;28;20116;-73
2022/09/21 12:58:47;;;;;;;11.52;2.47;;;;;;;;;;5088710;28;20068;-71
2022/09/21 13:01:19;;;;;;;10.55;2.15;;;;;;;;;;5072845;28;20135;-73
2022/09/21 13:04:12;;;;;;;9.27;2.00;;;;;;;;;;5064684;28;20055;-74
2022/09/21 13:06:59;;;;;;;8.63;2.10;;;;;;;;;;5082278;28;20048;-73
2022/09/21 13:09:26;;;;;;;10.60;2.17;;;;;;;;;;5076023;28;20080;-72
2022/09/21 13:11:55;;;;;;;10.27;2.45;;;;;;;;;;5087096;28;20040;-73
2022/09/21 13:14:23;;;;;;;10.95;4.75;;;;;;;;;;5100853;28;20475;-73
2022/09/21 13:16:56;;;;;;;8.43;1.85;;;;;;;;;;5096094;28;20465;-70
2022/09/21 13:19:23;;;;;;;9.02;2.13;;;;;;;;;;5065941;28;20395;-74
2022/09/21 13:22:13;;;;;;;9.43;2.15;;;;;;;;;;5095663;28;20044;-74
2022/09/21 13:24:41;;;;;;;14.40;3.42;;;;;;;;;;5098118;28;20048;-75
2022/09/21 13:27:10;;;;;;;11.25;2.00;;;;;;;;;;5093051;28;20056;-71
2022/09/21 13:29:38;;;;;;;10.85;2.20;;;;;;;;;;5088416;28;20111;-74
2022/09/21 13:32:04;;;;;;;6.93;1.95;;;;;;;;;;5099318;28;20131;-72
2022/09/21 13:34:32;;;;;;;8.80;2.28;;;;;;;;;;5092938;28;20059;-75
2022/09/21 13:37:20;;;;;;;9.40;1.90;;;;;;;;;;5106745;28;20142;-76
2022/09/21 13:40:02;;;;;;;9.77;2.13;;;;;;;;;;5087503;28;20066;-75
2022/09/21 13:42:34;;;;;;;7.90;1.90;;;;;;;;;;5099890;28;20051;-75
2022/09/21 13:45:12;;;;;;;8.50;2.00;;;;;;;;;;5077120;28;20064;-70
2022/09/21 13:47:44;;;;;;;7.95;2.17;;;;;;;;;;5085678;28;20048;-74
2022/09/21 13:50:24;;;;;;;12.73;2.53;;;;;;;;;;5065271;28;20074;-74
2022/09/21 13:53:00;;;;;;;10.52;2.20;;;;;;;;;;5104603;28;20058;-75
2022/09/21 13:55:26;;;;;;;10.15;2.20;;;;;;;;;;5092318;28;20052;-75
2022/09/21 13:57:54;;;;;;;12.60;2.05;;;;;;;;;;5103511;28;20104;-73
2022/09/21 14:00:23;;;;;;;6.78;1.92;;;;;;;;;;5083008;28;20408;-72
2022/09/21 14:02:49;;;;;;;9.68;2.15;;;;;;;;;;5097682;28;20043;-76
2022/09/21 14:05:15;;;;;;;7.63;2.08;;;;;;;;;;5092324;28;20208;-75
2022/09/21 14:07:42;;;;;;;8.68;2.42;;;;;;;;;;5078680;28;20492;-76
2022/09/21 14:10:09;;;;;;;;;;;;;;;;;;5086230;28;20056;-73
2022/09/21 14:12:43;;;;;;;10.02;2.00;;;;;;;;;;5099362;28;20030;-76
2022/09/21 14:15:16;;;;;;;13.80;9.30;;;;;;;;;;5071797;28;20392;-74
2022/09/21 14:18:02;;;;;;;8.60;2.30;;;;;;;;;;5073722;28;20071;-76
2022/09/21 14:20:31;;;;;;;9.65;1.88;;;;;;;;;;5065162;28;20074;-74
2022/09/21 14:23:11;;;;;;;12.90;5.80;;;;;;;;;;5087651;28;20176;-77
2022/09/21 14:25:47;;;;;;;8.75;1.92;;;;;;;;;;5087626;28;20123;-77
2022/09/21 14:28:17;;;;;;;11.38;2.10;;;;;;;;;;5094111;28;20052;-75
2022/09/21 14:30:49;;;;;;;9.55;2.40;;;;;;;;;;5087232;28;20408;-75
2022/09/21 14:33:22;;;;;;;9.40;2.30;;;;;;;;;;5082492;28;20052;-75
2022/09/21 14:35:52;;;;;;;8.75;2.05;;;;;;;;;;5095678;28;20389;-76
2022/09/21 14:38:21;;;;;;;12.77;3.33;;;;;;;;;;5098738;28;20044;-77
2022/09/21 14:40:51;;;;;;;8.95;1.92;;;;;;;;;;5082643;28;20043;-75
2022/09/21 14:43:21;;;;;;;11.93;2.65;;;;;;;;;;5070048;28;20127;-77
2022/09/21 14:46:06;;;;;;;12.60;2.70;;;;;;;;;;5103619;28;20085;-76
2022/09/21 14:49:01;;;;;;;9.35;2.17;;;;;;;;;;5036776;28;20040;-78
2022/09/21 14:51:48;;;;;;;13.15;2.60;;;;;;;;;;5085080;28;20099;-77
2022/09/21 14:54:16;;;;;;;9.20;2.53;;;;;;;;;;5053206;28;20074;-75
2022/09/21 14:56:42;;;;;;;10.38;2.55;;;;;;;;;;5094476;28;20113;-76
2022/09/21 14:59:26;;;;;;;9.82;2.10;;;;;;;;;;5092983;28;20117;-72
2022/09/21 15:02:02;;;;;;;12.43;2.20;;;;;;;;;;5072988;28;20507;-78